createdAt,value
2019-02-28T00:01:00.745Z,4.99
2019-02-28T00:03:29.435Z,4.94
2019-02-28T00:05:58.075Z,4.88
2019-02-28T00:08:26.612Z,4.84
2019-02-28T00:10:55.207Z,4.78
2019-02-28T00:13:23.855Z,4.73
2019-02-28T00:15:52.489Z,4.69
2019-02-28T00:18:21.273Z,4.65
2019-02-28T00:20:49.816Z,4.61
2019-02-28T00:23:19.153Z,4.55
2019-02-28T00:25:48.821Z,4.51
2019-02-28T00:28:17.437Z,4.46
2019-02-28T00:30:45.984Z,4.40
2019-02-28T00:33:14.613Z,4.36
2019-02-28T00:35:44.666Z,4.31
2019-02-28T00:38:13.617Z,4.24
2019-02-28T00:40:42.157Z,4.20
2019-02-28T00:43:11.012Z,4.14
2019-02-28T00:45:39.638Z,4.11
2019-02-28T00:48:08.243Z,4.07
2019-02-28T00:50:36.826Z,4.05
2019-02-28T00:53:06.362Z,4.00
2019-02-28T00:55:35.946Z,3.98
2019-02-28T00:58:04.571Z,3.94
2019-02-28T01:00:33.209Z,3.90
2019-02-28T01:03:01.941Z,3.87
2019-02-28T01:05:30.709Z,3.83
2019-02-28T01:07:59.416Z,3.81
2019-02-28T01:10:28.038Z,3.78
2019-02-28T01:12:56.583Z,3.75
2019-02-28T01:15:25.221Z,3.73
2019-02-28T01:17:53.827Z,3.70
2019-02-28T01:20:22.462Z,3.68
2019-02-28T01:22:51.073Z,3.64
2019-02-28T01:25:19.785Z,3.62
2019-02-28T01:27:48.390Z,3.59
2019-02-28T01:30:17.203Z,3.56
2019-02-28T01:32:49.847Z,3.54
2019-02-28T01:35:16.601Z,3.52
2019-02-28T01:37:45.209Z,3.50
2019-02-28T01:40:15.165Z,3.48
2019-02-28T01:42:43.894Z,3.46
2019-02-28T01:45:13.620Z,3.44
2019-02-28T01:47:42.233Z,3.43
2019-02-28T01:50:12.809Z,3.42
2019-02-28T01:52:45.912Z,3.41
2019-02-28T01:55:12.235Z,3.44
2019-02-28T01:57:44.099Z,3.46
2019-02-28T02:00:16.418Z,3.48
2019-02-28T02:02:44.971Z,3.46
2019-02-28T02:05:17.082Z,3.45
2019-02-28T02:07:44.018Z,3.43
2019-02-28T02:10:17.579Z,3.41
2019-02-28T02:12:47.495Z,3.40
2019-02-28T02:15:16.895Z,3.38
2019-02-28T02:17:46.307Z,3.38
2019-02-28T02:20:16.372Z,3.37
2019-02-28T02:22:45.450Z,3.35
2019-02-28T02:25:14.438Z,3.33
2019-02-28T02:27:43.172Z,3.30
2019-02-28T02:30:16.022Z,3.28
2019-02-28T02:32:44.827Z,3.25
2019-02-28T02:35:13.561Z,3.22
2019-02-28T02:37:42.105Z,3.20
2019-02-28T02:40:13.218Z,3.18
2019-02-28T02:42:47.230Z,3.16
2019-02-28T02:45:14.054Z,3.16
2019-02-28T02:47:42.658Z,3.14
2019-02-28T02:50:14.954Z,3.12
2019-02-28T02:52:43.713Z,3.09
2019-02-28T02:55:12.685Z,3.07
2019-02-28T02:57:41.407Z,3.04
2019-02-28T03:00:15.632Z,3.01
2019-02-28T03:02:43.475Z,2.99
2019-02-28T03:05:12.113Z,2.97
2019-02-28T03:07:40.723Z,2.99
2019-02-28T03:10:19.760Z,2.99
2019-02-28T03:12:48.749Z,2.99
2019-02-28T03:15:25.238Z,2.98
2019-02-28T03:17:49.158Z,2.98
2019-02-28T03:20:18.155Z,2.96
2019-02-28T03:22:46.815Z,2.94
2019-02-28T03:25:17.247Z,2.90
2019-02-28T03:27:45.872Z,2.88
2019-02-28T03:30:26.373Z,2.85
2019-02-28T03:32:46.659Z,2.83
2019-02-28T03:35:15.261Z,2.79
2019-02-28T03:37:43.873Z,2.78
2019-02-28T03:40:14.117Z,2.76
2019-02-28T03:42:42.758Z,2.75
2019-02-28T03:45:15.842Z,2.74
2019-02-28T03:47:44.421Z,2.76
2019-02-28T03:50:13.637Z,2.77
2019-02-28T03:52:44.123Z,2.77
2019-02-28T03:55:15.739Z,2.78
2019-02-28T03:57:44.296Z,2.77
2019-02-28T04:00:15.894Z,2.76
2019-02-28T04:02:44.502Z,2.77
2019-02-28T04:05:13.239Z,2.78
2019-02-28T04:07:41.869Z,2.83
2019-02-28T04:10:16.692Z,2.82
2019-02-28T04:12:45.625Z,2.82
2019-02-28T04:15:18.013Z,2.81
2019-02-28T04:17:46.626Z,2.78
2019-02-28T04:20:15.359Z,2.75
2019-02-28T04:22:43.990Z,2.72
2019-02-28T04:25:12.711Z,2.71
2019-02-28T04:27:41.842Z,2.66
2019-02-28T04:30:12.458Z,2.65
2019-02-28T04:32:41.166Z,2.63
2019-02-28T04:35:10.201Z,2.57
2019-02-28T04:37:44.907Z,2.55
2019-02-28T04:40:11.426Z,2.51
2019-02-28T04:42:39.911Z,2.47
2019-02-28T04:45:13.245Z,2.45
2019-02-28T04:47:41.971Z,2.42
2019-02-28T04:50:12.461Z,2.40
2019-02-28T04:52:46.705Z,2.38
2019-02-28T04:55:11.843Z,2.37
2019-02-28T04:57:40.455Z,2.34
2019-02-28T05:00:19.248Z,2.34
2019-02-28T05:02:47.860Z,2.32
2019-02-28T05:05:17.096Z,2.31
2019-02-28T05:07:45.702Z,2.30
2019-02-28T05:10:14.391Z,2.28
2019-02-28T05:12:43.006Z,2.27
2019-02-28T05:15:16.001Z,2.26
2019-02-28T05:17:44.620Z,2.27
2019-02-28T05:20:13.618Z,2.27
2019-02-28T05:22:42.254Z,2.30
2019-02-28T05:25:17.368Z,2.33
2019-02-28T05:27:42.178Z,2.37
2019-02-28T05:30:17.954Z,2.44
2019-02-28T05:32:45.361Z,2.54
2019-02-28T05:35:14.178Z,2.64
2019-02-28T05:37:46.690Z,2.74
2019-02-28T05:40:15.508Z,2.91
2019-02-28T05:42:44.106Z,3.03
2019-02-28T05:45:14.945Z,3.12
2019-02-28T05:47:46.983Z,3.18
2019-02-28T05:50:16.587Z,3.20
2019-02-28T05:52:44.788Z,3.22
2019-02-28T05:55:13.499Z,3.19
2019-02-28T05:57:43.270Z,3.17
2019-02-28T06:00:16.422Z,3.13
2019-02-28T06:02:45.196Z,3.06
2019-02-28T06:05:13.820Z,3.00
2019-02-28T06:07:42.715Z,2.92
2019-02-28T06:10:13.105Z,2.91
2019-02-28T06:12:43.793Z,2.91
2019-02-28T06:15:13.885Z,2.92
2019-02-28T06:17:42.504Z,2.95
2019-02-28T06:20:16.302Z,3.04
2019-02-28T06:22:42.954Z,3.09
2019-02-28T06:25:12.866Z,3.16
2019-02-28T06:27:45.602Z,3.23
2019-02-28T06:30:14.805Z,3.31
2019-02-28T06:32:43.413Z,3.41
2019-02-28T06:35:16.157Z,3.54
2019-02-28T06:37:42.508Z,3.70
2019-02-28T06:40:14.163Z,3.81
2019-02-28T06:42:43.547Z,3.91
2019-02-28T06:45:17.749Z,4.06
2019-02-28T06:47:49.749Z,4.21
2019-02-28T06:50:16.919Z,4.33
2019-02-28T06:52:45.556Z,4.41
2019-02-28T06:55:15.926Z,4.49
2019-02-28T06:57:44.507Z,4.56
2019-02-28T07:00:16.568Z,4.60
2019-02-28T07:02:45.447Z,4.63
2019-02-28T07:05:14.255Z,4.69
2019-02-28T07:07:45.862Z,4.75
2019-02-28T07:10:15.595Z,4.82
2019-02-28T07:12:44.278Z,4.90
2019-02-28T07:15:14.419Z,5.00
2019-02-28T07:17:46.293Z,5.11
2019-02-28T07:20:18.562Z,5.22
2019-02-28T07:22:47.169Z,5.28
2019-02-28T07:25:15.784Z,5.36
2019-02-28T07:27:44.414Z,5.59
2019-02-28T07:30:20.577Z,5.59
2019-02-28T07:32:49.297Z,5.70
2019-02-28T07:35:17.899Z,5.81
2019-02-28T07:37:46.801Z,6.10
2019-02-28T07:40:19.816Z,6.55
2019-02-28T07:42:48.623Z,6.97
2019-02-28T07:45:17.240Z,7.41
2019-02-28T07:47:51.778Z,7.78
2019-02-28T07:50:16.910Z,8.03
2019-02-28T07:52:45.532Z,8.06
2019-02-28T07:55:18.658Z,8.02
2019-02-28T07:57:51.206Z,8.00
2019-02-28T08:00:23.401Z,8.00
2019-02-28T08:02:52.416Z,8.09
2019-02-28T08:05:21.031Z,8.48
2019-02-28T08:07:52.493Z,9.03
2019-02-28T08:10:25.810Z,9.55
2019-02-28T08:12:54.501Z,10.02
2019-02-28T08:15:24.356Z,10.38
2019-02-28T08:17:53.099Z,10.57
2019-02-28T08:20:22.051Z,10.86
2019-02-28T08:22:50.658Z,11.15
2019-02-28T08:25:19.377Z,11.43
2019-02-28T08:27:47.991Z,11.72
2019-02-28T08:30:24.255Z,11.92
2019-02-28T08:32:52.901Z,12.08
2019-02-28T08:35:21.530Z,12.25
2019-02-28T08:37:55.448Z,12.35
2019-02-28T08:40:26.881Z,12.48
2019-02-28T08:42:55.940Z,12.60
2019-02-28T08:45:24.559Z,12.82
2019-02-28T08:47:56.568Z,12.94
2019-02-28T08:50:24.536Z,13.05
2019-02-28T08:52:54.874Z,13.29
2019-02-28T08:55:28.905Z,13.51
2019-02-28T08:57:56.886Z,13.67
2019-02-28T09:00:31.238Z,13.61
2019-02-28T09:02:55.222Z,13.43
2019-02-28T09:05:27.291Z,13.07
2019-02-28T09:07:54.232Z,13.16
2019-02-28T09:10:24.141Z,13.56
2019-02-28T09:12:52.852Z,14.07
2019-02-28T09:15:21.762Z,14.48
2019-02-28T09:17:50.711Z,14.62
2019-02-28T09:20:19.420Z,14.65
2019-02-28T09:22:48.045Z,14.61
2019-02-28T09:25:24.421Z,14.65
2019-02-28T09:27:53.171Z,14.75
2019-02-28T09:30:45.513Z,14.81
2019-02-28T09:33:14.067Z,14.79
2019-02-28T09:35:46.281Z,14.84
2019-02-28T09:38:13.715Z,14.82
2019-02-28T09:40:42.868Z,14.83
2019-02-28T09:43:11.505Z,14.86
2019-02-28T09:45:41.192Z,15.00
2019-02-28T09:48:09.930Z,15.27
2019-02-28T09:50:38.517Z,15.53
2019-02-28T09:53:07.502Z,15.92
2019-02-28T09:55:36.118Z,16.26
2019-02-28T09:58:04.774Z,16.43
2019-02-28T10:00:33.589Z,16.47
2019-02-28T10:03:02.198Z,16.60
2019-02-28T10:05:30.806Z,16.66
2019-02-28T10:08:02.760Z,16.70
2019-02-28T10:10:33.254Z,16.58
2019-02-28T10:13:01.797Z,16.47
2019-02-28T10:15:30.408Z,16.37
2019-02-28T10:18:00.646Z,16.41
2019-02-28T10:20:31.722Z,16.47
2019-02-28T10:23:00.563Z,16.48
2019-02-28T10:25:29.253Z,16.35
2019-02-28T10:28:01.584Z,16.18
2019-02-28T10:30:32.188Z,16.04
2019-02-28T10:32:59.427Z,15.82
2019-02-28T10:35:28.093Z,15.79
2019-02-28T10:37:58.538Z,15.86
2019-02-28T10:40:31.426Z,16.06
2019-02-28T10:43:00.065Z,16.12
2019-02-28T10:45:28.877Z,16.06
2019-02-28T10:48:02.987Z,16.04
2019-02-28T10:50:33.639Z,16.03
2019-02-28T10:53:05.381Z,16.16
2019-02-28T10:55:33.560Z,16.57
2019-02-28T10:58:02.168Z,16.83
2019-02-28T11:00:40.695Z,16.81
2019-02-28T11:03:09.411Z,16.67
2019-02-28T11:05:40.505Z,16.27
2019-02-28T11:08:17.404Z,16.20
2019-02-28T11:10:46.433Z,16.39
2019-02-28T11:13:21.629Z,16.43
2019-02-28T11:15:50.924Z,16.37
2019-02-28T11:18:19.653Z,16.16
2019-02-28T11:20:48.490Z,15.86
2019-02-28T11:23:17.745Z,15.47
2019-02-28T11:25:46.331Z,15.35
2019-02-28T11:28:15.513Z,15.23
2019-02-28T11:30:45.995Z,15.04
2019-02-28T11:33:15.624Z,14.78
2019-02-28T11:35:44.513Z,14.61
2019-02-28T11:38:13.229Z,14.45
2019-02-28T11:40:43.783Z,14.39
2019-02-28T11:43:12.647Z,14.34
2019-02-28T11:45:46.764Z,14.37
2019-02-28T11:48:26.818Z,14.27
2019-02-28T11:50:55.459Z,14.14
2019-02-28T11:53:24.079Z,14.13
2019-02-28T11:55:53.741Z,14.19
2019-02-28T11:58:23.007Z,14.20
2019-02-28T12:00:52.023Z,14.20
2019-02-28T12:03:20.717Z,14.23
2019-02-28T12:05:50.696Z,14.33
2019-02-28T12:08:19.940Z,14.47
2019-02-28T12:10:48.564Z,14.68
2019-02-28T12:13:19.586Z,14.88
2019-02-28T12:15:48.409Z,15.06
2019-02-28T12:18:16.958Z,15.24
2019-02-28T12:20:45.575Z,15.55
2019-02-28T12:23:14.304Z,15.94
2019-02-28T12:25:43.648Z,16.17
2019-02-28T12:28:12.626Z,16.39
2019-02-28T12:30:41.234Z,16.65
2019-02-28T12:33:09.856Z,16.79
2019-02-28T12:35:40.604Z,16.87
2019-02-28T12:38:10.233Z,16.96
2019-02-28T12:40:45.656Z,17.06
2019-02-28T12:43:13.334Z,17.17
2019-02-28T12:45:47.122Z,17.04
2019-02-28T12:48:15.124Z,17.31
2019-02-28T12:50:43.748Z,17.44
2019-02-28T12:53:12.358Z,17.47
2019-02-28T12:55:41.373Z,17.52
2019-02-28T12:58:09.983Z,17.51
2019-02-28T13:00:46.200Z,17.39
2019-02-28T13:03:19.125Z,17.25
2019-02-28T13:05:47.940Z,17.09
2019-02-28T13:08:15.525Z,17.08
2019-02-28T13:10:44.632Z,17.08
2019-02-28T13:13:13.325Z,17.07
2019-02-28T13:15:45.552Z,17.10
2019-02-28T13:18:12.372Z,17.06
2019-02-28T13:20:41.334Z,16.94
2019-02-28T13:23:09.892Z,16.77
2019-02-28T13:25:38.589Z,16.66
2019-02-28T13:28:08.270Z,16.57
2019-02-28T13:30:39.986Z,16.42
2019-02-28T13:33:10.974Z,16.30
2019-02-28T13:35:47.079Z,16.21
2019-02-28T13:38:17.462Z,16.18
2019-02-28T13:40:44.887Z,16.19
2019-02-28T13:43:19.594Z,16.17
2019-02-28T13:45:43.596Z,16.14
2019-02-28T13:48:12.284Z,16.11
2019-02-28T13:50:40.934Z,16.02
2019-02-28T13:53:18.566Z,15.76
2019-02-28T13:55:40.855Z,15.51
2019-02-28T13:58:09.550Z,15.33
2019-02-28T14:00:44.013Z,15.26
2019-02-28T14:03:11.178Z,15.21
2019-02-28T14:05:41.428Z,15.07
2019-02-28T14:08:12.013Z,14.91
2019-02-28T14:10:41.355Z,14.69
2019-02-28T14:13:09.991Z,14.52
2019-02-28T14:15:47.904Z,14.40
2019-02-28T14:18:17.077Z,14.34
2019-02-28T14:20:45.787Z,14.32
2019-02-28T14:23:20.092Z,14.34
2019-02-28T14:25:45.184Z,14.37
2019-02-28T14:28:13.803Z,14.40
2019-02-28T14:30:42.618Z,14.40
2019-02-28T14:33:11.239Z,14.39
2019-02-28T14:35:39.892Z,14.31
2019-02-28T14:38:08.542Z,14.23
2019-02-28T14:40:37.213Z,14.15
2019-02-28T14:43:05.815Z,14.12
2019-02-28T14:45:42.849Z,14.11
2019-02-28T14:48:10.824Z,14.11
2019-02-28T14:50:39.627Z,14.12
2019-02-28T14:53:13.249Z,14.12
2019-02-28T14:55:38.625Z,14.06
2019-02-28T14:58:07.111Z,13.93
2019-02-28T15:00:39.027Z,13.69
2019-02-28T15:03:06.739Z,13.42
2019-02-28T15:05:40.038Z,13.06
2019-02-28T15:08:11.975Z,12.85
2019-02-28T15:10:39.282Z,12.61
2019-02-28T15:13:07.929Z,12.43
2019-02-28T15:15:36.721Z,12.29
2019-02-28T15:18:05.869Z,12.23
2019-02-28T15:20:34.485Z,12.11
2019-02-28T15:23:03.143Z,12.00
2019-02-28T15:25:31.938Z,11.86
2019-02-28T15:28:00.625Z,11.75
2019-02-28T15:30:34.988Z,11.64
2019-02-28T15:33:03.676Z,11.54
2019-02-28T15:35:32.310Z,11.48
2019-02-28T15:38:00.931Z,11.44
2019-02-28T15:40:38.019Z,11.38
2019-02-28T15:43:07.184Z,11.36
2019-02-28T15:45:37.275Z,11.32
2019-02-28T15:48:06.027Z,11.29
2019-02-28T15:50:34.710Z,11.27
2019-02-28T15:53:03.363Z,11.26
2019-02-28T15:55:35.297Z,11.25
2019-02-28T15:58:05.709Z,11.25
2019-02-28T16:00:34.395Z,11.25
2019-02-28T16:03:03.015Z,11.24
2019-02-28T16:05:32.054Z,11.25
2019-02-28T16:08:00.759Z,11.25
2019-02-28T16:10:34.275Z,11.25
2019-02-28T16:13:02.977Z,11.25
2019-02-28T16:15:31.656Z,11.27
2019-02-28T16:18:00.284Z,11.28
2019-02-28T16:20:32.052Z,11.31
2019-02-28T16:22:59.244Z,11.33
2019-02-28T16:25:33.222Z,11.34
2019-02-28T16:28:04.470Z,11.34
2019-02-28T16:30:32.898Z,11.34
2019-02-28T16:33:01.889Z,11.34
2019-02-28T16:35:30.677Z,11.34
2019-02-28T16:37:59.312Z,11.33
2019-02-28T16:40:30.128Z,11.33
2019-02-28T16:42:58.860Z,11.32
2019-02-28T16:45:33.343Z,11.32
2019-02-28T16:48:03.725Z,11.32
2019-02-28T16:50:32.441Z,11.34
2019-02-28T16:53:01.089Z,11.33
2019-02-28T16:55:30.884Z,11.36
2019-02-28T16:58:00.209Z,11.37
2019-02-28T17:00:29.217Z,11.39
2019-02-28T17:02:57.921Z,11.39
2019-02-28T17:05:28.186Z,11.42
2019-02-28T17:07:57.164Z,11.44
2019-02-28T17:10:27.358Z,11.48
2019-02-28T17:13:14.606Z,11.50
2019-02-28T17:15:44.904Z,11.54
2019-02-28T17:18:24.107Z,11.55
2019-02-28T17:20:52.923Z,11.56
2019-02-28T17:23:21.472Z,11.58
2019-02-28T17:25:50.198Z,11.60
2019-02-28T17:28:23.304Z,11.60
2019-02-28T17:31:08.429Z,11.61
2019-02-28T17:33:36.239Z,11.63
2019-02-28T17:36:08.323Z,11.64
2019-02-28T17:38:37.293Z,11.65
2019-02-28T17:41:05.726Z,11.64
2019-02-28T17:43:37.239Z,11.64
2019-02-28T17:46:06.678Z,11.64
2019-02-28T17:48:52.484Z,11.64
2019-02-28T17:51:40.999Z,11.64
2019-02-28T17:54:29.273Z,11.62
2019-02-28T17:57:04.790Z,11.61
2019-02-28T17:59:45.284Z,11.59
2019-02-28T18:02:16.872Z,11.59
2019-02-28T18:05:04.999Z,11.55
2019-02-28T18:07:57.802Z,11.58
2019-02-28T18:10:32.505Z,11.56
2019-02-28T18:13:09.962Z,11.56
2019-02-28T18:15:56.291Z,11.56
2019-02-28T18:18:33.575Z,11.55
2019-02-28T18:21:17.361Z,11.52
2019-02-28T18:24:20.303Z,11.53
2019-02-28T18:27:00.744Z,11.51
2019-02-28T18:29:41.106Z,11.49
2019-02-28T18:32:09.652Z,11.47
2019-02-28T18:34:38.211Z,11.46
2019-02-28T18:37:06.827Z,11.45
2019-02-28T18:39:35.435Z,11.45
2019-02-28T18:42:40.505Z,11.44
2019-02-28T18:45:11.275Z,11.47
2019-02-28T18:47:40.779Z,11.45
2019-02-28T18:50:09.947Z,11.45
2019-02-28T18:52:38.699Z,11.45
2019-02-28T18:55:08.005Z,11.45
2019-02-28T18:57:36.617Z,11.45
2019-02-28T19:00:11.898Z,11.47
2019-02-28T19:02:40.541Z,11.45
2019-02-28T19:05:09.293Z,11.45
2019-02-28T19:07:37.906Z,11.42
2019-02-28T19:10:10.871Z,11.40
2019-02-28T19:12:39.579Z,11.40
2019-02-28T19:15:10.919Z,11.38
2019-02-28T19:17:39.553Z,11.37
2019-02-28T19:20:12.060Z,11.38
2019-02-28T19:22:40.610Z,11.38
2019-02-28T19:25:12.674Z,11.39
2019-02-28T19:27:41.323Z,11.37
2019-02-28T19:30:12.879Z,11.35
2019-02-28T19:32:41.494Z,11.31
2019-02-28T19:35:10.341Z,11.24
2019-02-28T19:37:39.033Z,11.19
2019-02-28T19:40:10.167Z,11.11
2019-02-28T19:42:38.799Z,11.05
2019-02-28T19:45:16.670Z,11.05
2019-02-28T19:47:45.220Z,11.03
2019-02-28T19:50:13.865Z,11.03
2019-02-28T19:52:42.505Z,11.00
2019-02-28T19:55:13.757Z,11.01
2019-02-28T19:57:42.465Z,11.01
2019-02-28T20:00:19.050Z,11.02
2019-02-28T20:02:48.143Z,11.02
2019-02-28T20:05:16.864Z,11.04
2019-02-28T20:07:45.483Z,11.05
2019-02-28T20:10:18.160Z,11.06
2019-02-28T20:12:46.853Z,11.04
2019-02-28T20:15:22.022Z,11.05
2019-02-28T20:17:50.734Z,11.03
2019-02-28T20:20:24.424Z,11.03
2019-02-28T20:22:53.073Z,11.02
2019-02-28T20:25:21.784Z,10.99
2019-02-28T20:27:50.391Z,10.96
2019-02-28T20:30:20.826Z,10.94
2019-02-28T20:32:49.400Z,10.91
2019-02-28T20:35:26.119Z,10.91
2019-02-28T20:37:48.492Z,10.88
2019-02-28T20:40:31.308Z,10.87
2019-02-28T20:42:59.840Z,10.84
2019-02-28T20:45:28.474Z,10.82
2019-02-28T20:47:57.654Z,10.80
2019-02-28T20:50:41.342Z,10.79
2019-02-28T20:53:09.991Z,10.77
2019-02-28T20:55:38.525Z,10.73
2019-02-28T20:58:07.131Z,10.72
2019-02-28T21:00:36.051Z,10.68
2019-02-28T21:03:04.763Z,10.68
2019-02-28T21:05:33.400Z,10.65
2019-02-28T21:08:02.006Z,10.64
2019-02-28T21:10:30.626Z,10.61
2019-02-28T21:12:59.272Z,10.61
2019-02-28T21:15:27.888Z,10.58
2019-02-28T21:17:56.518Z,10.59
2019-02-28T21:20:25.124Z,10.57
2019-02-28T21:22:53.686Z,10.58
2019-02-28T21:25:22.290Z,10.58
2019-02-28T21:27:50.938Z,10.57
2019-02-28T21:30:24.630Z,10.58
2019-02-28T21:32:53.231Z,10.59
2019-02-28T21:35:22.566Z,10.58
2019-02-28T21:37:51.379Z,10.57
2019-02-28T21:40:22.160Z,10.57
2019-02-28T21:42:50.931Z,10.55
2019-02-28T21:45:22.119Z,10.50
2019-02-28T21:47:50.773Z,10.44
2019-02-28T21:50:19.575Z,10.38
2019-02-28T21:52:48.212Z,10.32
2019-02-28T21:55:17.647Z,10.25
2019-02-28T21:57:46.331Z,10.21
2019-02-28T22:00:26.810Z,10.18
2019-02-28T22:02:55.240Z,10.15
2019-02-28T22:05:23.996Z,10.13
2019-02-28T22:07:52.609Z,10.13
2019-02-28T22:10:21.247Z,10.13
2019-02-28T22:12:49.884Z,10.13
2019-02-28T22:15:25.376Z,10.14
2019-02-28T22:17:53.963Z,10.15
2019-02-28T22:20:22.802Z,10.16
2019-02-28T22:22:51.349Z,10.16
2019-02-28T22:25:20.179Z,10.17
2019-02-28T22:27:48.823Z,10.17
2019-02-28T22:30:37.717Z,10.19
2019-02-28T22:33:24.049Z,10.20
2019-02-28T22:36:00.535Z,10.21
2019-02-28T22:38:29.071Z,10.21
2019-02-28T22:40:57.716Z,10.22
2019-02-28T22:43:26.350Z,10.24
2019-02-28T22:45:54.909Z,10.23
2019-02-28T22:48:23.537Z,10.20
2019-02-28T22:50:52.322Z,10.20
2019-02-28T22:53:20.865Z,10.24
2019-02-28T22:55:49.597Z,10.23
2019-02-28T22:58:18.415Z,10.22
2019-02-28T23:01:00.782Z,10.21
2019-02-28T23:03:31.154Z,10.21
2019-02-28T23:05:59.794Z,10.19
2019-02-28T23:08:28.482Z,10.18
2019-02-28T23:10:57.100Z,10.18
2019-02-28T23:13:25.710Z,10.18
2019-02-28T23:15:54.320Z,10.18
2019-02-28T23:18:22.953Z,10.17
2019-02-28T23:20:51.680Z,10.16
2019-02-28T23:23:20.319Z,10.16
2019-02-28T23:25:48.932Z,10.16
2019-02-28T23:28:23.181Z,10.15
2019-02-28T23:31:09.151Z,10.14
2019-02-28T23:33:37.775Z,10.04
2019-02-28T23:36:06.384Z,10.07
2019-02-28T23:38:34.939Z,10.07
2019-02-28T23:41:04.881Z,10.05
2019-02-28T23:43:33.498Z,10.05
2019-02-28T23:46:02.110Z,10.03
2019-02-28T23:48:30.742Z,10.03
2019-02-28T23:50:59.347Z,10.00
2019-02-28T23:53:27.924Z,9.95
2019-02-28T23:55:56.468Z,9.90
2019-02-28T23:58:24.972Z,9.85
